Time;durP1;ratioP1;P1;durP2;ratioP2;P2;SDS_P1;SDS_P2;PMS_P1;PMS_P2;Temp;Humidity;BMP_temperature;BMP_pressure;BME280_temperature;BME280_humidity;BME280_pressure;Samples;Min_cycle;Max_cycle;Signal;HPM_P1;HPM_P2
2023/05/24 00:02:05;;;;;;;11.37;10.47;;;;;;;12.98;93.85;92637.16;5092826;28;20753;-74
2023/05/24 00:04:31;;;;;;;10.33;9.63;;;;;;;12.74;94.02;92619.06;5092058;28;20188;-71
2023/05/24 00:06:57;;;;;;;10.27;9.67;;;;;;;12.80;94.32;92638.06;5092716;28;20204;-71
2023/05/24 00:09:22;;;;;;;11.67;10.67;;;;;;;12.78;93.45;92637.56;5092349;28;20193;-71
2023/05/24 00:11:48;;;;;;;11.03;10.03;;;;;;;12.78;93.20;92632.31;5092442;28;20212;-71
2023/05/24 00:14:13;;;;;;;11.07;10.40;;;;;;;12.83;91.64;92634.84;5092268;28;20183;-71
2023/05/24 00:16:39;;;;;;;11.53;10.43;;;;;;;12.82;91.72;92635.94;5091805;28;20228;-72
2023/05/24 00:19:04;;;;;;;12.17;11.33;;;;;;;12.74;91.20;92618.25;5092117;28;20172;-71
2023/05/24 00:21:31;;;;;;;11.67;10.60;;;;;;;12.70;92.79;92625.91;5091790;28;20220;-71
2023/05/24 00:23:56;;;;;;;11.87;10.93;;;;;;;12.81;91.96;92627.28;5092567;28;20169;-72
2023/05/24 00:26:22;;;;;;;11.07;10.37;;;;;;;12.71;92.92;92637.19;5091044;28;20229;-71
2023/05/24 00:28:47;;;;;;;11.40;10.60;;;;;;;12.71;93.85;92637.97;5092417;28;20181;-71
2023/05/24 00:31:13;;;;;;;10.57;9.67;;;;;;;12.41;95.16;92629.84;5076394;28;20251;-72
2023/05/24 00:33:39;;;;;;;11.70;10.67;;;;;;;12.50;95.52;92635.97;5071778;28;20249;-71
2023/05/24 00:36:05;;;;;;;10.60;9.90;;;;;;;12.58;95.08;92624.84;5085288;28;20247;-72
2023/05/24 00:38:30;;;;;;;11.73;10.80;;;;;;;12.55;95.41;92633.28;5074159;28;20200;-71
2023/05/24 00:40:56;;;;;;;10.07;9.37;;;;;;;12.50;95.54;92617.66;5092144;28;20243;-71
2023/05/24 00:43:22;;;;;;;11.57;10.77;;;;;;;12.39;95.19;92611.06;5091909;28;20215;-72
2023/05/24 00:46:00;;;;;;;10.67;9.97;;;;;;;12.44;94.96;92627.44;5091610;28;20216;-72
2023/05/24 00:48:27;;;;;;;10.30;9.70;;;;;;;12.60;85.60;92627.97;5091564;28;20224;-72
2023/05/24 00:50:53;;;;;;;11.40;10.50;;;;;;;12.53;90.48;92625.72;5073818;28;20223;-72
2023/05/24 00:53:18;;;;;;;11.33;10.53;;;;;;;12.46;93.06;92624.53;5092834;28;20305;-72
2023/05/24 00:55:43;;;;;;;11.47;10.77;;;;;;;12.47;94.10;92621.63;5102195;28;20221;-72
2023/05/24 00:58:09;;;;;;;12.17;11.27;;;;;;;12.42;94.36;92626.94;5091417;28;20197;-72
2023/05/24 01:00:35;;;;;;;10.87;10.03;;;;;;;12.30;94.08;92625.88;5091422;28;20231;-71
2023/05/24 01:03:01;;;;;;;11.27;10.47;;;;;;;12.14;93.95;92617.50;5091169;28;20218;-72
2023/05/24 01:05:26;;;;;;;10.40;9.80;;;;;;;12.15;95.17;92624.28;5091231;28;20228;-72
2023/05/24 01:08:14;;;;;;;10.90;10.13;;;;;;;12.14;95.78;92624.59;5090264;28;20238;-73
2023/05/24 01:10:52;;;;;;;11.13;10.33;;;;;;;12.14;96.40;92622.72;5091885;28;20289;-72
2023/05/24 01:13:29;;;;;;;11.57;10.77;;;;;;;12.18;96.17;92623.72;5078399;28;20202;-72
2023/05/24 01:16:09;;;;;;;11.57;10.53;;;;;;;11.98;97.12;92613.59;5091082;28;20235;-72
2023/05/24 01:18:40;;;;;;;11.87;10.43;;;;;;;11.99;97.05;92614.34;5091349;28;20182;-72
2023/05/24 01:21:12;;;;;;;11.67;10.67;;;;;;;12.02;97.41;92625.03;5089547;28;20247;-72
2023/05/24 01:24:06;;;;;;;11.23;10.43;;;;;;;11.80;98.71;92627.47;5090437;28;20185;-71
2023/05/24 01:26:50;;;;;;;11.67;10.87;;;;;;;11.77;99.22;92622.81;5090300;28;20233;-72
2023/05/24 01:29:16;;;;;;;11.53;10.40;;;;;;;11.62;98.87;92603.91;5095896;28;20184;-73
2023/05/24 01:31:42;;;;;;;12.20;11.20;;;;;;;11.77;98.74;92629.84;5090480;28;20219;-72
2023/05/24 01:34:07;;;;;;;11.60;10.90;;;;;;;11.76;98.75;92625.69;5091010;28;20236;-71
2023/05/24 01:36:32;;;;;;;11.77;10.80;;;;;;;11.79;98.13;92630.34;5090181;28;20241;-72
2023/05/24 01:38:58;;;;;;;12.13;10.97;;;;;;;11.56;99.73;92631.19;5099862;28;20191;-72
2023/05/24 01:41:39;;;;;;;12.00;11.10;;;;;;;11.47;100.00;92638.88;5093502;28;20217;-72
2023/05/24 01:44:39;;;;;;;11.43;10.63;;;;;;;11.48;100.00;92642.28;5090965;28;20204;-71
2023/05/24 01:47:43;;;;;;;12.07;11.37;;;;;;;11.50;100.00;92638.34;5081001;28;20233;-72
2023/05/24 01:50:25;;;;;;;13.37;12.00;;;;;;;11.54;99.73;92643.78;5069615;28;20274;-72
2023/05/24 01:52:52;;;;;;;11.90;11.07;;;;;;;11.29;99.56;92601.25;5090374;28;20662;-71
2023/05/24 01:55:19;;;;;;;12.07;11.27;;;;;;;11.50;99.81;92627.09;5090186;28;20254;-73
2023/05/24 01:57:47;;;;;;;12.37;11.37;;;;;;;11.56;100.00;92625.97;5090819;28;20189;-72
2023/05/24 02:00:18;;;;;;;12.13;11.33;;;;;;;11.47;100.00;92622.44;5089991;28;20247;-72
2023/05/24 02:02:43;;;;;;;12.47;11.67;;;;;;;11.51;100.00;92626.03;5090652;28;20193;-73
2023/05/24 02:05:10;;;;;;;12.23;11.07;;;;;;;11.46;100.00;92616.44;5089742;28;20255;-73
2023/05/24 02:07:36;;;;;;;12.00;11.17;;;;;;;11.34;100.00;92616.88;5090681;28;20212;-71
2023/05/24 02:10:01;;;;;;;12.20;11.33;;;;;;;11.38;100.00;92610.00;5089486;28;20230;-71
2023/05/24 02:12:27;;;;;;;13.13;12.07;;;;;;;11.38;100.00;92610.00;5090553;28;20250;-72
2023/05/24 02:14:53;;;;;;;12.30;11.40;;;;;;;11.29;100.00;92610.94;5089746;28;20224;-72
2023/05/24 02:17:18;;;;;;;12.63;11.37;;;;;;;11.45;100.00;92620.13;5090011;28;20227;-72
2023/05/24 02:19:44;;;;;;;12.17;11.03;;;;;;;11.24;100.00;92608.38;5089512;28;20227;-72
2023/05/24 02:22:09;;;;;;;11.70;10.93;;;;;;;11.32;100.00;92620.81;5090174;28;20648;-71
2023/05/24 02:24:36;;;;;;;10.60;9.80;;;;;;;11.31;100.00;92614.78;5089944;28;20187;-72
2023/05/24 02:27:02;;;;;;;12.30;11.30;;;;;;;11.35;100.00;92620.25;5090142;28;20211;-72
2023/05/24 02:29:28;;;;;;;12.40;11.60;;;;;;;11.21;100.00;92612.34;5089523;28;20192;-72
2023/05/24 02:31:56;;;;;;;11.93;11.07;;;;;;;11.16;100.00;92612.41;5089887;28;20256;-71
2023/05/24 02:34:22;;;;;;;12.40;11.30;;;;;;;11.30;100.00;92602.81;5089839;28;20292;-72
2023/05/24 02:36:49;;;;;;;11.20;10.47;;;;;;;11.05;100.00;92605.00;5089537;28;20267;-72
2023/05/24 02:39:14;;;;;;;11.70;10.90;;;;;;;11.14;100.00;92598.81;5089397;28;20215;-72
2023/05/24 02:41:40;;;;;;;11.80;10.90;;;;;;;11.17;100.00;92608.72;5090098;28;20231;-72
2023/05/24 02:44:05;;;;;;;12.63;11.73;;;;;;;11.02;100.00;92610.75;5089868;28;20235;-72
2023/05/24 02:46:31;;;;;;;13.00;12.17;;;;;;;10.95;100.00;92590.22;5089486;28;20966;-73
2023/05/24 02:48:56;;;;;;;10.87;10.07;;;;;;;11.00;100.00;92607.66;5089680;28;20241;-71
2023/05/24 02:51:22;;;;;;;11.90;11.00;;;;;;;10.98;100.00;92618.38;5089506;28;20214;-72
2023/05/24 02:53:47;;;;;;;13.87;11.43;;;;;;;10.97;100.00;92605.59;5089699;28;20170;-72
2023/05/24 02:56:15;;;;;;;12.10;10.93;;;;;;;11.07;100.00;92624.53;5088925;28;20224;-72
2023/05/24 02:58:41;;;;;;;12.00;11.00;;;;;;;10.68;100.00;92584.00;5090824;28;20173;-71
2023/05/24 03:01:07;;;;;;;12.47;11.57;;;;;;;10.82;100.00;92621.44;5089076;28;20223;-72
2023/05/24 03:03:32;;;;;;;12.83;11.83;;;;;;;11.08;100.00;92620.84;5090002;28;20178;-72
2023/05/24 03:05:58;;;;;;;12.90;11.80;;;;;;;11.26;99.70;92614.88;5089051;28;20231;-72
2023/05/24 03:08:23;;;;;;;12.43;11.53;;;;;;;11.51;98.64;92612.97;5089900;28;20235;-70
2023/05/24 03:10:49;;;;;;;12.33;11.13;;;;;;;12.00;96.22;92626.38;5089510;28;20228;-73
2023/05/24 03:13:14;;;;;;;11.80;10.97;;;;;;;12.04;94.44;92622.13;5089307;28;20185;-72
2023/05/24 03:15:39;;;;;;;12.20;11.23;;;;;;;12.08;93.91;92607.38;5089286;28;20246;-72
2023/05/24 03:18:05;;;;;;;11.70;10.93;;;;;;;12.31;92.17;92628.19;5089053;28;20173;-73
2023/05/24 03:20:30;;;;;;;11.13;10.33;;;;;;;12.36;90.67;92628.09;5075480;28;20245;-72
2023/05/24 03:22:56;;;;;;;10.50;9.70;;;;;;;12.63;89.21;92636.00;5089622;28;20178;-72
2023/05/24 03:25:21;;;;;;;11.23;10.43;;;;;;;12.86;87.30;92644.75;5089143;28;20228;-72
2023/05/24 03:27:47;;;;;;;9.90;9.30;;;;;;;13.10;86.54;92645.38;5086134;28;20235;-72
2023/05/24 03:30:12;;;;;;;12.77;10.67;;;;;;;13.22;86.15;92645.66;5086766;28;20231;-73
2023/05/24 03:32:38;;;;;;;11.57;10.53;;;;;;;13.66;85.60;92655.47;5093075;28;20189;-74
2023/05/24 03:35:03;;;;;;;10.93;10.23;;;;;;;13.76;85.02;92656.03;5092721;28;20258;-73
2023/05/24 03:37:29;;;;;;;10.47;9.77;;;;;;;13.58;86.28;92656.16;5092693;28;20169;-74
2023/05/24 03:39:54;;;;;;;12.27;11.47;;;;;;;13.47;87.10;92660.06;5075371;28;20224;-74
2023/05/24 03:42:21;;;;;;;12.47;9.43;;;;;;;13.91;85.24;92660.16;5093495;28;20188;-73
2023/05/24 03:44:46;;;;;;;9.97;9.30;;;;;;;15.24;78.37;92666.81;5092701;28;20224;-74
2023/05/24 03:47:13;;;;;;;11.20;10.50;;;;;;;15.13;78.19;92651.63;5092669;28;20259;-74
2023/05/24 03:49:38;;;;;;;11.30;10.30;;;;;;;14.60;80.07;92664.06;5092484;28;20208;-73
2023/05/24 03:52:04;;;;;;;10.07;9.37;;;;;;;14.43;82.47;92655.00;5093606;28;20200;-75
2023/05/24 03:54:29;;;;;;;11.57;10.60;;;;;;;14.41;81.79;92651.13;5070985;28;20205;-74
2023/05/24 03:56:54;;;;;;;11.47;10.63;;;;;;;14.46;82.61;92646.50;5091412;28;20185;-74
2023/05/24 03:59:21;;;;;;;11.17;10.27;;;;;;;14.75;82.15;92658.41;5091610;28;20222;-74
2023/05/24 04:01:46;;;;;;;12.33;11.37;;;;;;;14.86;80.73;92659.69;5091121;28;20232;-74
2023/05/24 04:04:12;;;;;;;12.00;11.03;;;;;;;15.07;78.71;92660.69;5071435;28;20243;-74
2023/05/24 04:06:40;;;;;;;12.33;11.23;;;;;;;14.97;80.43;92663.63;5090928;28;20231;-74
2023/05/24 04:09:06;;;;;;;10.33;9.27;;;;;;;14.96;80.00;92665.47;5091771;28;20189;-74
2023/05/24 04:11:31;;;;;;;11.73;10.57;;;;;;;15.16;78.36;92672.81;5091192;28;20241;-74
2023/05/24 04:13:59;;;;;;;10.83;9.93;;;;;;;15.07;79.49;92661.50;5091490;28;20367;-74
2023/05/24 04:16:26;;;;;;;11.43;10.63;;;;;;;15.00;79.08;92660.38;5090556;28;20243;-75
2023/05/24 04:18:55;;;;;;;10.47;9.77;;;;;;;15.30;77.45;92662.19;5091324;28;20260;-75
2023/05/24 04:21:22;;;;;;;11.97;10.87;;;;;;;15.68;76.10;92674.53;5090542;28;20220;-74
2023/05/24 04:23:47;;;;;;;12.47;11.63;;;;;;;15.08;78.03;92672.78;5074230;28;20192;-74
2023/05/24 04:26:13;;;;;;;12.63;11.83;;;;;;;15.55;76.76;92672.78;5091510;28;20224;-75
2023/05/24 04:28:38;;;;;;;11.07;10.17;;;;;;;15.17;77.76;92670.97;5074017;28;20185;-75
2023/05/24 04:31:05;;;;;;;12.27;11.37;;;;;;;15.19;78.19;92666.94;5090962;28;20213;-74
2023/05/24 04:33:34;;;;;;;12.57;11.57;;;;;;;15.12;78.53;92678.97;5092189;28;20189;-74
2023/05/24 04:36:00;;;;;;;12.07;11.20;;;;;;;14.99;80.43;92674.63;5087827;28;20241;-75
2023/05/24 04:38:28;;;;;;;13.97;12.93;;;;;;;14.43;80.74;92675.22;5090213;28;20189;-74
2023/05/24 04:40:58;;;;;;;12.93;12.03;;;;;;;15.09;78.80;92690.09;5091426;28;22100;-74
2023/05/24 04:43:25;;;;;;;12.17;11.17;;;;;;;15.53;77.54;92680.22;5090513;28;20200;-74
2023/05/24 04:45:53;;;;;;;13.40;12.20;;;;;;;15.62;77.98;92677.63;5072484;28;20212;-74
2023/05/24 04:48:20;;;;;;;12.77;11.77;;;;;;;15.71;77.41;92692.34;5088768;28;20205;-75
2023/05/24 04:50:46;;;;;;;12.80;11.80;;;;;;;16.10;75.82;92699.34;5091127;28;20224;-74
2023/05/24 04:53:12;;;;;;;14.20;12.80;;;;;;;16.77;72.77;92697.78;5091786;28;20219;-74
2023/05/24 04:55:37;;;;;;;14.00;12.67;;;;;;;17.76;68.26;92709.69;5089064;28;20236;-74
2023/05/24 04:58:03;;;;;;;14.33;13.13;;;;;;;16.70;71.46;92702.75;5091340;28;20219;-74
2023/05/24 05:00:28;;;;;;;12.03;11.03;;;;;;;17.39;69.42;92705.94;5089772;28;20229;-75
2023/05/24 05:02:54;;;;;;;13.87;11.63;;;;;;;17.80;68.41;92718.50;5076638;28;20191;-71
2023/05/24 05:10:11;;;;;;;13.20;12.27;;;;;;;17.24;69.29;92709.91;5085528;27;20320;-70
2023/05/24 05:12:37;;;;;;;13.27;12.27;;;;;;;17.48;68.78;92707.50;5044792;28;20233;-70
2023/05/24 05:15:03;;;;;;;14.23;13.10;;;;;;;17.16;69.03;92705.44;5048966;28;20289;-70
2023/05/24 05:17:28;;;;;;;14.37;13.10;;;;;;;17.13;69.90;92710.56;5065770;28;20975;-70
2023/05/24 05:19:54;;;;;;;14.17;13.10;;;;;;;17.23;71.83;92712.88;5063681;28;20229;-69
2023/05/24 05:22:19;;;;;;;14.70;13.37;;;;;;;17.40;71.16;92708.28;5063742;28;20190;-70
2023/05/24 05:24:45;;;;;;;14.07;13.00;;;;;;;17.60;70.95;92707.59;5060517;28;20243;-70
2023/05/24 05:27:10;;;;;;;17.77;16.00;;;;;;;17.89;69.80;92721.88;5062249;28;20195;-69
2023/05/24 05:29:36;;;;;;;14.17;12.77;;;;;;;18.14;69.55;92711.16;5065267;28;20237;-70
2023/05/24 05:32:01;;;;;;;16.27;14.60;;;;;;;19.34;63.61;92723.31;5096624;28;20189;-70
2023/05/24 05:34:26;;;;;;;13.43;12.10;;;;;;;19.78;61.52;92722.47;5064762;28;20210;-70
2023/05/24 05:36:52;;;;;;;16.10;13.07;;;;;;;19.59;61.44;92727.53;5064654;28;20197;-70
2023/05/24 05:39:17;;;;;;;14.00;12.80;;;;;;;21.25;57.80;92736.59;5063599;28;20217;-69
2023/05/24 05:41:44;;;;;;;13.50;12.30;;;;;;;22.09;53.75;92736.03;5063847;28;20238;-70
2023/05/24 05:44:11;;;;;;;14.57;13.13;;;;;;;25.01;45.56;92745.41;5062558;28;20198;-70
2023/05/24 05:46:37;;;;;;;14.80;12.45;;;;;;;27.67;37.93;92758.50;5063305;28;20223;-71
2023/05/24 05:49:02;;;;;;;12.25;11.02;;;;;;;29.51;34.68;92760.63;5061677;28;20216;-72
2023/05/24 05:51:28;;;;;;;12.48;11.35;;;;;;;29.01;34.53;92759.25;5064449;28;20231;-71
2023/05/24 05:53:53;;;;;;;13.20;12.00;;;;;;;27.02;38.05;92753.25;5063177;28;20208;-70
2023/05/24 05:56:18;;;;;;;11.45;10.45;;;;;;;31.75;30.64;92760.56;5064458;28;20255;-71
2023/05/24 05:58:44;;;;;;;11.45;10.43;;;;;;;33.36;27.27;92767.22;5064753;28;20204;-71
2023/05/24 06:01:09;;;;;;;10.93;10.02;;;;;;;34.01;26.29;92763.59;5063248;28;20307;-71
2023/05/24 06:03:35;;;;;;;10.85;9.75;;;;;;;33.49;26.76;92760.03;5063471;28;20180;-70
2023/05/24 06:06:00;;;;;;;11.40;10.40;;;;;;;34.09;26.29;92773.06;5062050;28;20225;-71
2023/05/24 06:08:26;;;;;;;10.63;9.82;;;;;;;33.78;25.98;92771.78;5064683;28;20233;-70
2023/05/24 06:10:51;;;;;;;12.32;11.15;;;;;;;32.45;27.11;92764.19;5063546;28;20293;-71
2023/05/24 06:13:17;;;;;;;10.30;9.55;;;;;;;34.02;26.40;92771.31;5063719;28;20190;-70
2023/05/24 06:15:43;;;;;;;10.88;10.13;;;;;;;34.20;25.63;92773.59;5058963;28;20218;-72
2023/05/24 06:18:08;;;;;;;11.15;10.13;;;;;;;31.88;28.88;92775.06;5064447;28;20201;-70
2023/05/24 06:20:33;;;;;;;10.15;9.15;;;;;;;32.02;27.92;92774.09;5051822;28;20245;-70
2023/05/24 06:22:59;;;;;;;10.93;9.93;;;;;;;33.99;25.52;92779.50;5047485;28;20230;-69
2023/05/24 06:25:24;;;;;;;11.50;10.35;;;;;;;31.35;29.44;92774.94;5046960;28;20225;-73
2023/05/24 06:27:50;;;;;;;10.95;9.95;;;;;;;26.54;36.40;92757.19;5041071;28;20186;-71
2023/05/24 06:30:16;;;;;;;13.20;11.43;;;;;;;32.15;28.58;92773.13;5043841;28;21339;-70
2023/05/24 06:32:41;;;;;;;10.55;9.70;;;;;;;34.05;25.91;92780.53;5047609;28;20209;-68
2023/05/24 06:35:07;;;;;;;11.13;10.13;;;;;;;33.90;25.46;92771.94;5050255;28;20236;-71
2023/05/24 06:37:33;;;;;;;11.93;9.93;;;;;;;30.95;29.78;92754.16;5046368;28;20350;-71
2023/05/24 06:39:58;;;;;;;11.65;10.50;;;;;;;27.01;36.03;92759.00;5046606;28;20233;-68
2023/05/24 06:42:24;;;;;;;12.13;11.13;;;;;;;25.74;38.88;92750.06;5051195;28;20192;-68
2023/05/24 06:44:49;;;;;;;12.70;11.40;;;;;;;24.34;42.53;92749.09;5049373;28;20297;-67
2023/05/24 06:47:14;;;;;;;11.95;11.00;;;;;;;22.65;46.12;92747.94;5044820;28;20244;-67
2023/05/24 06:49:40;;;;;;;16.55;11.68;;;;;;;20.49;54.24;92718.97;5082053;28;20213;-69
2023/05/24 06:52:07;;;;;;;12.20;11.10;;;;;;;20.93;53.40;92730.44;5046732;28;20298;-67
2023/05/24 06:54:32;;;;;;;11.75;10.75;;;;;;;21.42;52.27;92730.94;5046496;28;20195;-67
2023/05/24 06:56:57;;;;;;;12.18;11.23;;;;;;;20.84;52.02;92731.69;5050529;28;20185;-68
2023/05/24 06:59:23;;;;;;;12.02;10.95;;;;;;;20.72;52.65;92731.72;5050647;28;20764;-70
2023/05/24 07:01:52;;;;;;;12.55;11.48;;;;;;;20.72;53.60;92718.47;5050435;28;20918;-66
2023/05/24 07:04:17;;;;;;;13.10;11.95;;;;;;;20.85;52.71;92726.03;5043587;28;20201;-68
2023/05/24 07:06:44;;;;;;;13.30;12.30;;;;;;;20.65;53.00;92730.41;5048102;28;20219;-72
2023/05/24 07:09:10;;;;;;;12.20;11.30;;;;;;;20.38;54.21;92719.78;5048559;28;20347;-68
2023/05/24 07:11:35;;;;;;;12.25;11.32;;;;;;;20.17;55.50;92724.47;5048116;28;20229;-69
2023/05/24 07:14:01;;;;;;;13.40;12.30;;;;;;;19.81;56.09;92722.59;5045677;28;20261;-71
2023/05/24 07:16:26;;;;;;;11.98;10.98;;;;;;;19.67;57.02;92722.16;5049208;28;20235;-70
2023/05/24 07:18:53;;;;;;;11.90;11.10;;;;;;;19.98;57.53;92732.97;5049472;28;20197;-70
2023/05/24 07:21:19;;;;;;;12.82;11.45;;;;;;;20.47;55.75;92738.97;5048049;28;20236;-68
2023/05/24 07:23:44;;;;;;;12.13;11.23;;;;;;;20.60;53.76;92732.53;5050572;28;20193;-68
2023/05/24 07:26:09;;;;;;;13.52;12.38;;;;;;;20.73;52.08;92737.47;5042727;28;20921;-68
2023/05/24 07:28:37;;;;;;;13.43;12.35;;;;;;;19.82;55.49;92739.25;5042428;28;20235;-68
2023/05/24 07:31:03;;;;;;;12.70;11.48;;;;;;;20.27;57.39;92735.38;5044161;28;20245;-70
2023/05/24 07:33:29;;;;;;;11.80;10.88;;;;;;;20.74;53.30;92735.59;5048188;28;20187;-68
2023/05/24 07:35:54;;;;;;;12.98;11.80;;;;;;;20.16;59.35;92750.19;5047390;28;20247;-69
2023/05/24 07:38:19;;;;;;;12.10;11.13;;;;;;;20.40;55.31;92742.22;5048679;28;20269;-70
2023/05/24 07:40:45;;;;;;;11.75;10.82;;;;;;;20.37;55.82;92729.59;5059115;28;20225;-69
2023/05/24 07:43:10;;;;;;;11.63;10.73;;;;;;;20.96;52.39;92747.56;5049567;28;20208;-70
2023/05/24 07:45:36;;;;;;;14.50;11.60;;;;;;;20.87;51.89;92747.72;5048681;28;20228;-69
2023/05/24 07:48:01;;;;;;;17.92;12.48;;;;;;;20.82;53.81;92747.94;5049457;28;20188;-69
2023/05/24 07:50:28;;;;;;;12.20;11.20;;;;;;;20.85;51.39;92730.56;5048833;28;20253;-69
2023/05/24 07:52:55;;;;;;;12.20;11.18;;;;;;;20.61;52.41;92726.88;5049073;28;20193;-68
2023/05/24 07:55:20;;;;;;;12.50;11.38;;;;;;;20.54;54.44;92737.31;5041939;28;20322;-70
2023/05/24 07:57:46;;;;;;;11.93;10.63;;;;;;;20.24;53.56;92724.66;5046776;28;20186;-70
2023/05/24 08:00:15;;;;;;;12.85;11.85;;;;;;;19.95;53.42;92741.59;5049053;28;20233;-70
2023/05/24 08:02:42;;;;;;;11.37;10.47;;;;;;;20.74;52.25;92732.94;5049958;28;20185;-68
2023/05/24 08:05:10;;;;;;;12.40;11.18;;;;;;;20.52;51.50;92730.78;5048410;28;20240;-67
2023/05/24 08:07:35;;;;;;;12.85;11.85;;;;;;;20.23;51.42;92737.13;5047201;28;20215;-67
2023/05/24 08:10:01;;;;;;;13.57;12.35;;;;;;;20.42;55.21;92737.31;5047975;28;20248;-67
2023/05/24 08:12:29;;;;;;;12.77;11.77;;;;;;;20.70;53.74;92743.44;5048162;28;20193;-67
2023/05/24 08:14:55;;;;;;;12.77;11.88;;;;;;;21.17;48.55;92748.91;5046173;28;20267;-67
2023/05/24 08:17:21;;;;;;;11.75;10.82;;;;;;;20.56;52.37;92745.69;5048622;28;20186;-67
2023/05/24 08:19:46;;;;;;;12.60;11.60;;;;;;;21.19;50.48;92737.94;5048674;28;20233;-69
2023/05/24 08:22:12;;;;;;;13.65;12.25;;;;;;;20.81;54.88;92738.41;5050327;28;20210;-70
2023/05/24 08:24:37;;;;;;;13.93;12.55;;;;;;;21.35;49.13;92744.06;5047138;28;20199;-71
2023/05/24 08:27:03;;;;;;;12.32;11.35;;;;;;;21.31;49.26;92737.91;5049643;28;20197;-69
2023/05/24 08:29:29;;;;;;;12.02;11.00;;;;;;;21.36;49.97;92740.28;5049469;28;20222;-72
2023/05/24 08:31:54;;;;;;;11.75;10.65;;;;;;;21.21;52.09;92735.75;5050216;28;20199;-70
2023/05/24 08:34:20;;;;;;;11.40;10.45;;;;;;;21.51;47.89;92728.94;5046016;28;20213;-70
2023/05/24 08:36:46;;;;;;;10.45;9.75;;;;;;;21.84;41.96;92740.78;5048609;28;20222;-69
2023/05/24 08:39:11;;;;;;;11.20;10.32;;;;;;;21.93;44.59;92746.69;5049501;28;20197;-69
2023/05/24 08:41:37;;;;;;;10.85;9.98;;;;;;;21.43;44.24;92737.81;5049674;28;20232;-69
2023/05/24 08:44:06;;;;;;;13.98;12.77;;;;;;;21.52;44.94;92730.47;5049317;28;20277;-70
2023/05/24 08:46:36;;;;;;;11.23;10.30;;;;;;;21.65;46.98;92739.91;5049288;28;20224;-70
2023/05/24 08:49:02;;;;;;;12.90;11.80;;;;;;;21.96;45.30;92751.31;5039923;28;20209;-70
2023/05/24 08:51:29;;;;;;;11.18;10.02;;;;;;;21.67;45.71;92717.16;5049143;28;20225;-70
2023/05/24 08:53:57;;;;;;;12.40;11.50;;;;;;;21.24;48.66;92735.84;5049865;28;20180;-72
2023/05/24 08:56:25;;;;;;;56.00;20.40;;;;;;;21.27;48.00;92737.81;5049355;28;20288;-70
2023/05/24 08:58:51;;;;;;;12.85;11.55;;;;;;;21.34;48.65;92729.25;5049508;28;20189;-70
2023/05/24 09:01:17;;;;;;;12.15;11.07;;;;;;;21.59;45.40;92738.59;5049206;28;20221;-70
2023/05/24 09:03:45;;;;;;;11.23;10.45;;;;;;;21.82;45.25;92744.91;5049192;28;20193;-70
2023/05/24 09:06:12;;;;;;;10.30;9.52;;;;;;;21.69;41.54;92738.88;5048908;28;20234;-70
2023/05/24 09:08:39;;;;;;;11.60;10.82;;;;;;;21.64;43.33;92743.66;5048985;28;20292;-69
2023/05/24 09:11:07;;;;;;;10.55;9.70;;;;;;;21.68;44.20;92739.97;5048876;28;20231;-68
2023/05/24 09:13:33;;;;;;;9.85;9.13;;;;;;;21.98;40.55;92748.31;5049723;28;20190;-70
2023/05/24 09:16:00;;;;;;;10.30;9.50;;;;;;;22.18;40.13;92747.25;5040526;28;20230;-69
2023/05/24 09:18:26;;;;;;;9.68;9.07;;;;;;;21.92;43.15;92747.03;5045885;28;20191;-70
2023/05/24 09:20:51;;;;;;;11.85;10.80;;;;;;;22.27;42.10;92744.41;5040460;28;20222;-69
2023/05/24 09:23:17;;;;;;;13.65;11.30;;;;;;;22.13;44.72;92740.31;5048157;28;20182;-70
2023/05/24 09:25:44;;;;;;;10.88;9.57;;;;;;;22.44;40.18;92746.69;5048464;28;20239;-70
2023/05/24 09:28:19;;;;;;;9.55;8.65;;;;;;;22.49;40.14;92752.47;5048408;28;20198;-69
2023/05/24 09:30:56;;;;;;;10.55;9.73;;;;;;;22.51;40.05;92750.28;5037902;28;20238;-68
2023/05/24 09:33:21;;;;;;;10.50;9.57;;;;;;;22.47;44.11;92744.09;5048423;28;20186;-69
2023/05/24 09:35:48;;;;;;;10.93;10.13;;;;;;;22.48;40.04;92729.66;5039474;28;20232;-69
2023/05/24 09:38:17;;;;;;;10.82;9.52;;;;;;;22.29;41.81;92732.28;5045224;28;20197;-69
2023/05/24 09:40:43;;;;;;;17.50;12.65;;;;;;;21.72;40.29;92740.06;5047627;28;20225;-70
2023/05/24 09:43:09;;;;;;;11.40;10.35;;;;;;;22.26;40.24;92740.97;5042824;28;20193;-70
2023/05/24 09:45:45;;;;;;;12.10;9.27;;;;;;;22.55;40.61;92739.72;5047185;28;20255;-70
2023/05/24 09:48:16;;;;;;;10.80;10.00;;;;;;;22.54;40.59;92730.97;5045715;28;20200;-70
2023/05/24 09:50:46;;;;;;;12.68;11.45;;;;;;;22.71;40.18;92722.56;5047492;28;20220;-68
2023/05/24 09:53:11;;;;;;;12.45;11.30;;;;;;;22.86;40.38;92734.28;5047456;28;20185;-70
2023/05/24 09:55:37;;;;;;;11.68;10.68;;;;;;;22.82;38.18;92734.19;5049728;28;20266;-70
2023/05/24 09:58:06;;;;;;;10.02;9.18;;;;;;;22.64;40.78;92743.72;5050708;28;20193;-68
2023/05/24 10:00:42;;;;;;;10.70;9.80;;;;;;;22.52;37.91;92732.44;5050206;28;20229;-68
2023/05/24 10:03:10;;;;;;;12.38;11.27;;;;;;;22.42;37.46;92736.38;5052035;28;20191;-69
2023/05/24 10:05:36;;;;;;;10.57;9.68;;;;;;;22.53;37.01;92737.41;5050064;28;20250;-68
2023/05/24 10:08:05;;;;;;;10.35;9.55;;;;;;;22.57;38.29;92735.59;5050275;28;20282;-68
2023/05/24 10:10:32;;;;;;;10.50;9.60;;;;;;;22.75;37.62;92733.28;5046968;28;20247;-68
2023/05/24 10:12:59;;;;;;;53.65;50.85;;;;;;;22.77;35.05;92723.06;5051953;28;20188;-69
2023/05/24 10:15:25;;;;;;;10.80;10.00;;;;;;;21.85;37.63;92717.63;5050958;28;20228;-67
2023/05/24 10:17:51;;;;;;;15.60;11.95;;;;;;;22.53;38.97;92726.00;5048433;28;20179;-68
2023/05/24 10:20:17;;;;;;;12.27;11.18;;;;;;;22.77;37.27;92718.50;5051034;28;20244;-69
2023/05/24 10:22:45;;;;;;;10.00;9.30;;;;;;;22.88;38.23;92716.06;5045578;28;20223;-68
2023/05/24 10:25:26;;;;;;;15.18;12.10;;;;;;;22.72;36.11;92721.47;5044597;28;20340;-69
2023/05/24 10:27:56;;;;;;;10.18;9.40;;;;;;;22.87;37.03;92722.50;5048601;28;20188;-68
2023/05/24 10:30:34;;;;;;;11.68;10.68;;;;;;;22.70;38.20;92721.03;5043145;28;20264;-67
2023/05/24 10:33:01;;;;;;;10.75;9.88;;;;;;;22.65;39.82;92713.31;5051727;28;20204;-69
2023/05/24 10:35:28;;;;;;;19.73;13.68;;;;;;;23.08;38.39;92714.94;5044806;28;20251;-69
2023/05/24 10:37:53;;;;;;;19.10;13.45;;;;;;;23.17;37.72;92702.94;5050262;28;20194;-69
2023/05/24 10:40:21;;;;;;;10.70;10.02;;;;;;;23.22;35.79;92713.28;5051938;28;20223;-69
2023/05/24 10:42:47;;;;;;;14.52;13.43;;;;;;;23.16;34.35;92706.69;5052779;28;20198;-69
2023/05/24 10:45:22;;;;;;;11.85;10.88;;;;;;;22.30;36.86;92712.56;5051495;28;20230;-68
2023/05/24 10:47:48;;;;;;;10.68;9.77;;;;;;;22.81;38.65;92705.25;5050949;28;20184;-70
2023/05/24 10:50:19;;;;;;;10.68;9.80;;;;;;;22.40;37.58;92704.03;5050236;28;20258;-69
2023/05/24 10:52:45;;;;;;;10.27;9.50;;;;;;;22.27;38.19;92698.06;5050887;28;20174;-69
2023/05/24 10:55:12;;;;;;;10.82;10.02;;;;;;;22.77;39.72;92699.88;5050713;28;20280;-69
2023/05/24 10:57:38;;;;;;;15.75;13.32;;;;;;;23.24;35.26;92697.72;5050638;28;20181;-68
2023/05/24 11:00:19;;;;;;;11.65;10.82;;;;;;;23.14;37.02;92679.66;5050391;28;20243;-69
2023/05/24 11:02:49;;;;;;;11.50;10.43;;;;;;;23.12;37.34;92692.56;5047919;28;20184;-69
2023/05/24 11:05:14;;;;;;;9.95;9.23;;;;;;;22.97;37.08;92682.78;5050215;28;20232;-69
2023/05/24 11:07:43;;;;;;;10.05;9.38;;;;;;;22.83;35.94;92687.84;5050833;28;20222;-68
2023/05/24 11:10:28;;;;;;;10.32;9.40;;;;;;;23.26;37.29;92684.06;5051058;28;20246;-69
2023/05/24 11:12:59;;;;;;;10.07;9.35;;;;;;;23.54;34.90;92672.00;5044415;28;20202;-70
2023/05/24 11:15:25;;;;;;;12.13;11.32;;;;;;;23.68;35.26;92690.09;5051254;28;20236;-69
2023/05/24 11:18:07;;;;;;;11.98;11.10;;;;;;;23.71;34.55;92686.72;5051582;28;20264;-68
2023/05/24 11:20:34;;;;;;;10.32;9.68;;;;;;;23.64;34.41;92683.97;5051343;28;20700;-70
2023/05/24 11:23:02;;;;;;;9.93;9.18;;;;;;;23.48;34.37;92673.44;5050891;28;20189;-69
2023/05/24 11:25:28;;;;;;;8.50;8.00;;;;;;;23.63;34.74;92685.06;5050095;28;20233;-70